createdAt,value
2023-03-03T00:01:07.472Z,65.90
2023-03-03T00:03:34.761Z,65.90
2023-03-03T00:06:04.005Z,66.10
2023-03-03T00:08:32.536Z,66.00
2023-03-03T00:11:00.966Z,66.00
2023-03-03T00:13:29.004Z,66.10
2023-03-03T00:16:12.804Z,66.20
2023-03-03T00:18:46.120Z,66.30
2023-03-03T00:21:32.000Z,66.30
2023-03-03T00:24:16.854Z,66.30
2023-03-03T00:27:09.139Z,66.20
2023-03-03T00:29:40.764Z,66.20
2023-03-03T00:32:19.898Z,66.30
2023-03-03T00:34:47.289Z,66.30
2023-03-03T00:37:35.029Z,66.30
2023-03-03T00:40:20.967Z,66.40
2023-03-03T00:42:54.422Z,66.40
2023-03-03T00:45:44.369Z,66.50
2023-03-03T00:48:31.799Z,66.50
2023-03-03T00:51:01.220Z,66.60
2023-03-03T00:53:30.473Z,66.50
2023-03-03T00:55:58.075Z,66.60
2023-03-03T00:58:25.701Z,66.60
2023-03-03T01:00:54.511Z,66.60
2023-03-03T01:03:24.703Z,66.80
2023-03-03T01:05:52.770Z,66.80
2023-03-03T01:08:23.446Z,66.90
2023-03-03T01:10:54.544Z,66.90
2023-03-03T01:13:24.521Z,67.00
2023-03-03T01:15:51.907Z,67.20
2023-03-03T01:18:19.345Z,67.10
2023-03-03T01:20:46.795Z,67.30
2023-03-03T01:23:13.733Z,67.20
2023-03-03T01:25:40.978Z,67.30
2023-03-03T01:28:07.756Z,67.30
2023-03-03T01:30:34.868Z,67.50
2023-03-03T01:33:01.805Z,67.40
2023-03-03T01:35:29.949Z,67.60
2023-03-03T01:37:57.828Z,67.50
2023-03-03T01:40:28.293Z,67.60
2023-03-03T01:42:55.100Z,67.80
2023-03-03T01:45:21.933Z,67.70
2023-03-03T01:48:06.616Z,67.80
2023-03-03T01:50:49.021Z,67.80
2023-03-03T01:53:22.613Z,67.90
2023-03-03T01:55:52.078Z,68.00
2023-03-03T01:58:22.972Z,67.90
2023-03-03T02:00:59.150Z,68.00
2023-03-03T02:03:27.198Z,68.00
2023-03-03T02:05:58.721Z,68.00
2023-03-03T02:08:31.518Z,68.20
2023-03-03T02:10:58.683Z,68.10
2023-03-03T02:13:25.476Z,68.30
2023-03-03T02:15:52.478Z,68.60
2023-03-03T02:18:21.019Z,68.40
2023-03-03T02:21:19.727Z,68.40
2023-03-03T02:24:10.955Z,68.40
2023-03-03T02:26:41.478Z,68.40
2023-03-03T02:29:09.991Z,68.40
2023-03-03T02:31:38.628Z,68.40
2023-03-03T02:34:05.588Z,69.20
2023-03-03T02:36:35.890Z,68.40
2023-03-03T02:39:19.252Z,68.50
2023-03-03T02:41:48.970Z,68.60
2023-03-03T02:44:18.153Z,69.30
2023-03-03T02:46:47.875Z,68.70
2023-03-03T02:49:17.879Z,68.70
2023-03-03T02:51:44.985Z,68.70
2023-03-03T02:54:14.542Z,68.70
2023-03-03T02:56:41.872Z,68.80
2023-03-03T02:59:09.435Z,68.80
2023-03-03T03:01:39.345Z,68.80
2023-03-03T03:04:18.672Z,68.80
2023-03-03T03:06:47.776Z,68.80
2023-03-03T03:09:15.855Z,69.00
2023-03-03T03:11:43.239Z,69.00
2023-03-03T03:14:14.593Z,69.00
2023-03-03T03:16:43.402Z,69.00
2023-03-03T03:19:10.182Z,69.00
2023-03-03T03:21:37.225Z,69.00
2023-03-03T03:24:04.022Z,69.00
2023-03-03T03:26:30.822Z,69.10
2023-03-03T03:28:57.728Z,69.10
2023-03-03T03:31:24.554Z,69.10
2023-03-03T03:33:52.776Z,69.20
2023-03-03T03:36:19.554Z,69.20
2023-03-03T03:38:46.397Z,69.20
2023-03-03T03:41:13.894Z,69.20
2023-03-03T03:43:44.138Z,69.30
2023-03-03T03:46:11.116Z,69.30
2023-03-03T03:48:37.879Z,69.40
2023-03-03T03:51:04.954Z,69.40
2023-03-03T03:53:32.004Z,69.40
2023-03-03T03:55:58.843Z,69.40
2023-03-03T03:58:26.007Z,69.50
2023-03-03T04:00:52.853Z,69.50
2023-03-03T04:03:20.234Z,69.50
2023-03-03T04:05:47.265Z,69.50
2023-03-03T04:08:16.084Z,69.50
2023-03-03T04:10:42.867Z,69.50
2023-03-03T04:13:09.692Z,69.50
2023-03-03T04:15:44.961Z,69.50
2023-03-03T04:18:11.750Z,69.60
2023-03-03T04:20:40.388Z,69.50
2023-03-03T04:23:07.162Z,69.60
2023-03-03T04:25:34.045Z,69.70
2023-03-03T04:28:00.738Z,69.70
2023-03-03T04:30:27.527Z,69.70
2023-03-03T04:32:54.351Z,69.70
2023-03-03T04:35:21.474Z,69.70
2023-03-03T04:37:51.315Z,69.80
2023-03-03T04:40:18.391Z,69.90
2023-03-03T04:42:45.231Z,69.80
2023-03-03T04:45:12.145Z,69.90
2023-03-03T04:47:39.149Z,69.90
2023-03-03T04:50:06.488Z,70.00
2023-03-03T04:52:33.247Z,70.00
2023-03-03T04:55:00.391Z,70.00
2023-03-03T04:57:27.341Z,70.10
2023-03-03T04:59:54.218Z,70.10
2023-03-03T05:02:20.977Z,70.00
2023-03-03T05:04:47.870Z,70.10
2023-03-03T05:07:17.559Z,70.30
2023-03-03T05:09:44.365Z,70.10
2023-03-03T05:12:11.157Z,70.10
2023-03-03T05:14:37.896Z,70.10
2023-03-03T05:17:07.775Z,70.20
2023-03-03T05:19:35.023Z,70.30
2023-03-03T05:22:02.111Z,70.20
2023-03-03T05:24:28.944Z,70.20
2023-03-03T05:26:55.812Z,70.20
2023-03-03T05:29:22.634Z,70.20
2023-03-03T05:31:49.753Z,70.20
2023-03-03T05:34:16.525Z,70.20
2023-03-03T05:36:45.984Z,70.20
2023-03-03T05:39:12.887Z,70.30
2023-03-03T05:41:42.724Z,70.20
2023-03-03T05:44:09.730Z,70.30
2023-03-03T05:46:37.331Z,70.20
2023-03-03T05:49:04.071Z,70.40
2023-03-03T05:51:30.913Z,70.40
2023-03-03T05:53:57.637Z,70.40
2023-03-03T05:56:24.360Z,70.40
2023-03-03T05:58:51.110Z,70.50
2023-03-03T06:01:18.133Z,70.50
2023-03-03T06:03:44.889Z,70.60
2023-03-03T06:06:12.418Z,70.70
2023-03-03T06:08:45.324Z,70.60
2023-03-03T06:11:13.090Z,70.70
2023-03-03T06:13:41.421Z,70.60
2023-03-03T06:16:08.488Z,70.70
2023-03-03T06:18:35.191Z,70.70
2023-03-03T06:21:01.933Z,70.70
2023-03-03T06:23:28.812Z,70.70
2023-03-03T06:25:55.543Z,70.70
2023-03-03T06:28:25.698Z,70.70
2023-03-03T06:30:56.457Z,70.80
2023-03-03T06:33:23.605Z,70.90
2023-03-03T06:35:54.635Z,70.90
2023-03-03T06:38:21.696Z,71.00
2023-03-03T06:40:48.501Z,71.00
2023-03-03T06:43:15.387Z,71.00
2023-03-03T06:45:43.417Z,71.00
2023-03-03T06:48:10.166Z,71.90
2023-03-03T06:50:36.964Z,71.50
2023-03-03T06:53:18.298Z,71.50
2023-03-03T06:55:45.616Z,71.50
2023-03-03T06:58:15.349Z,71.40
2023-03-03T07:00:58.397Z,71.50
2023-03-03T07:03:37.121Z,71.40
2023-03-03T07:06:16.494Z,71.40
2023-03-03T07:08:43.200Z,71.40
2023-03-03T07:11:16.273Z,71.40
2023-03-03T07:13:50.125Z,71.40
2023-03-03T07:16:18.506Z,71.40
2023-03-03T07:18:51.204Z,71.30
2023-03-03T07:21:26.661Z,71.50
2023-03-03T07:23:54.365Z,70.90
2023-03-03T07:26:27.503Z,71.40
2023-03-03T07:28:58.388Z,71.50
2023-03-03T07:31:33.776Z,71.50
2023-03-03T07:34:01.563Z,71.50
2023-03-03T07:36:35.013Z,71.50
2023-03-03T07:39:11.563Z,71.60
2023-03-03T07:41:38.588Z,71.40
2023-03-03T07:44:12.616Z,71.50
2023-03-03T07:46:48.201Z,71.70
2023-03-03T07:49:25.270Z,71.60
2023-03-03T07:52:00.083Z,71.70
2023-03-03T07:54:39.462Z,71.70
2023-03-03T07:57:23.279Z,71.80
2023-03-03T08:00:19.384Z,71.70
2023-03-03T08:03:25.582Z,71.70
2023-03-03T08:05:52.746Z,71.70
2023-03-03T08:08:25.054Z,71.60
2023-03-03T08:10:56.388Z,71.90
2023-03-03T08:13:33.214Z,71.60
2023-03-03T08:16:04.771Z,71.60
2023-03-03T08:18:40.702Z,71.60
2023-03-03T08:21:13.611Z,71.80
2023-03-03T08:23:40.758Z,71.70
2023-03-03T08:26:08.219Z,71.70
2023-03-03T08:28:35.022Z,71.80
2023-03-03T08:31:16.738Z,71.80
2023-03-03T08:33:47.447Z,71.80
2023-03-03T08:36:14.737Z,71.80
2023-03-03T08:38:41.554Z,71.70
2023-03-03T08:41:08.704Z,71.90
2023-03-03T08:43:35.374Z,71.80
2023-03-03T08:46:08.363Z,71.90
2023-03-03T08:48:35.142Z,71.90
2023-03-03T08:51:02.411Z,71.90
2023-03-03T08:53:34.370Z,72.20
2023-03-03T08:56:01.348Z,72.10
2023-03-03T08:58:34.967Z,72.00
2023-03-03T09:01:02.461Z,72.00
2023-03-03T09:03:29.922Z,72.00
2023-03-03T09:05:56.853Z,72.10
2023-03-03T09:08:23.592Z,72.10
2023-03-03T09:10:53.169Z,72.00
2023-03-03T09:13:20.141Z,72.00
2023-03-03T09:15:48.073Z,72.00
2023-03-03T09:18:18.780Z,72.10
2023-03-03T09:20:50.407Z,72.10
2023-03-03T09:23:38.926Z,72.20
2023-03-03T09:26:36.753Z,72.10
2023-03-03T09:29:29.169Z,72.10
2023-03-03T09:32:02.654Z,72.10
2023-03-03T09:34:40.246Z,72.10
2023-03-03T09:37:34.455Z,72.10
2023-03-03T09:40:01.322Z,72.00
2023-03-03T09:42:43.636Z,71.90
2023-03-03T09:45:22.076Z,71.90
2023-03-03T09:48:06.924Z,71.90
2023-03-03T09:51:01.575Z,71.90
2023-03-03T09:54:06.179Z,71.90
2023-03-03T09:56:46.927Z,72.00
2023-03-03T09:59:27.102Z,72.10
2023-03-03T10:02:12.631Z,72.10
2023-03-03T10:04:43.890Z,71.90
2023-03-03T10:07:28.479Z,72.00
2023-03-03T10:10:05.938Z,72.10
2023-03-03T10:12:38.733Z,72.20
2023-03-03T10:15:31.476Z,72.20
2023-03-03T10:18:15.693Z,72.30
2023-03-03T10:20:53.762Z,72.10
2023-03-03T10:23:39.502Z,72.20
2023-03-03T10:26:38.271Z,71.90
2023-03-03T10:29:45.981Z,71.90
2023-03-03T10:32:30.500Z,71.70
2023-03-03T10:35:41.448Z,71.70
2023-03-03T10:38:20.075Z,71.40
2023-03-03T10:41:24.240Z,70.80
2023-03-03T10:44:12.776Z,70.50
2023-03-03T10:47:16.202Z,70.40
2023-03-03T10:50:01.190Z,70.30
2023-03-03T10:52:57.999Z,70.30
2023-03-03T10:55:39.538Z,70.30
2023-03-03T10:58:24.752Z,70.30
2023-03-03T11:01:03.728Z,70.20
2023-03-03T11:03:49.951Z,70.10
2023-03-03T11:06:40.661Z,70.20
2023-03-03T11:09:33.780Z,70.90
2023-03-03T11:13:02.166Z,70.00
2023-03-03T11:15:45.001Z,69.90
2023-03-03T11:18:16.111Z,69.80
2023-03-03T11:21:05.790Z,69.80
2023-03-03T11:23:50.646Z,69.90
2023-03-03T11:26:50.161Z,70.00
2023-03-03T11:29:42.540Z,70.50
2023-03-03T11:32:22.701Z,70.50
2023-03-03T11:35:15.920Z,70.40
2023-03-03T11:37:45.537Z,70.20
2023-03-03T11:40:21.831Z,70.00
2023-03-03T11:43:18.582Z,69.60
2023-03-03T11:45:59.973Z,68.40
2023-03-03T11:48:34.005Z,67.90
2023-03-03T11:51:21.058Z,67.60
2023-03-03T11:53:57.927Z,67.30
2023-03-03T11:56:42.359Z,67.00
2023-03-03T11:59:31.930Z,66.50
2023-03-03T12:02:27.579Z,66.80
2023-03-03T12:05:19.632Z,66.50
2023-03-03T12:08:04.874Z,65.50
2023-03-03T12:10:55.389Z,65.10
2023-03-03T12:13:29.886Z,65.00
2023-03-03T12:16:12.314Z,64.30
2023-03-03T12:18:42.225Z,64.70
2023-03-03T12:21:23.596Z,65.20
2023-03-03T12:24:14.372Z,64.90
2023-03-03T12:26:54.414Z,64.50
2023-03-03T12:29:38.465Z,63.50
2023-03-03T12:32:37.258Z,63.80
2023-03-03T12:35:26.254Z,63.70
2023-03-03T12:38:20.780Z,64.10
2023-03-03T12:41:29.295Z,64.20
2023-03-03T12:44:11.384Z,63.60
2023-03-03T12:46:45.319Z,63.30
2023-03-03T12:49:12.950Z,62.40
2023-03-03T12:52:14.380Z,62.50
2023-03-03T12:54:43.866Z,63.00
2023-03-03T12:57:31.200Z,63.60
2023-03-03T13:00:06.936Z,63.20
2023-03-03T13:03:01.976Z,62.90
2023-03-03T13:05:51.008Z,62.80
2023-03-03T13:08:52.849Z,62.90
2023-03-03T13:11:34.760Z,63.30
2023-03-03T13:14:35.627Z,62.90
2023-03-03T13:17:09.171Z,62.60
2023-03-03T13:19:45.733Z,61.90
2023-03-03T13:22:25.793Z,61.70
2023-03-03T13:25:03.686Z,61.60
2023-03-03T13:27:39.781Z,62.00
2023-03-03T13:30:27.413Z,62.60
2023-03-03T13:33:05.842Z,62.50
2023-03-03T13:35:46.381Z,62.90
2023-03-03T13:38:26.332Z,61.80
2023-03-03T13:41:26.485Z,61.70
2023-03-03T13:44:05.150Z,61.70
2023-03-03T13:46:52.874Z,62.00
2023-03-03T13:49:51.831Z,61.90
2023-03-03T13:52:23.483Z,61.40
2023-03-03T13:55:21.705Z,60.70
2023-03-03T13:58:01.568Z,60.60
2023-03-03T14:00:38.621Z,60.60
2023-03-03T14:03:35.822Z,60.00
2023-03-03T14:06:15.511Z,60.10
2023-03-03T14:09:01.061Z,59.90
2023-03-03T14:11:49.033Z,60.40
2023-03-03T14:15:02.075Z,60.20
2023-03-03T14:17:38.263Z,60.10
2023-03-03T14:20:24.900Z,60.10
2023-03-03T14:22:53.457Z,59.90
2023-03-03T14:25:20.369Z,59.50
2023-03-03T14:27:47.566Z,59.30
2023-03-03T14:30:31.982Z,59.30
2023-03-03T14:33:12.651Z,59.20
2023-03-03T14:35:52.083Z,59.10
2023-03-03T14:38:27.073Z,58.70
2023-03-03T14:41:09.985Z,58.80
2023-03-03T14:43:47.966Z,58.60
2023-03-03T14:46:36.698Z,58.50
2023-03-03T14:49:15.811Z,58.20
2023-03-03T14:51:48.568Z,57.40
2023-03-03T14:54:25.716Z,57.10
2023-03-03T14:57:07.169Z,57.30
2023-03-03T14:59:35.972Z,57.50
2023-03-03T15:02:17.520Z,57.70
2023-03-03T15:04:48.780Z,57.50
2023-03-03T15:07:30.459Z,57.60
2023-03-03T15:09:57.237Z,57.60
2023-03-03T15:12:39.541Z,57.90
2023-03-03T15:15:11.393Z,57.70
2023-03-03T15:18:11.073Z,57.90
2023-03-03T15:21:05.136Z,58.00
2023-03-03T15:23:49.874Z,58.00
2023-03-03T15:26:42.381Z,58.10
2023-03-03T15:29:28.185Z,58.50
2023-03-03T15:32:13.806Z,58.50
2023-03-03T15:35:14.751Z,57.60
2023-03-03T15:37:56.746Z,57.20
2023-03-03T15:41:05.274Z,56.80
2023-03-03T15:43:50.143Z,56.80
2023-03-03T15:46:53.311Z,57.00
2023-03-03T15:49:43.006Z,57.20
2023-03-03T15:52:22.687Z,57.20
2023-03-03T15:55:13.304Z,57.10
2023-03-03T15:58:05.959Z,57.20
2023-03-03T16:00:51.804Z,57.30
2023-03-03T16:03:35.500Z,57.50
2023-03-03T16:06:38.173Z,57.50
2023-03-03T16:09:30.312Z,57.70
2023-03-03T16:12:25.038Z,57.60
2023-03-03T16:15:10.302Z,57.80
2023-03-03T16:18:04.049Z,57.90
2023-03-03T16:20:30.910Z,58.00
2023-03-03T16:23:36.229Z,58.20
2023-03-03T16:26:33.995Z,58.20
2023-03-03T16:29:17.629Z,58.30
2023-03-03T16:31:48.563Z,59.20
2023-03-03T16:34:40.276Z,59.20
2023-03-03T16:37:22.151Z,59.30
2023-03-03T16:40:03.902Z,59.40
2023-03-03T16:42:32.891Z,59.50
2023-03-03T16:45:29.667Z,59.40
2023-03-03T16:48:02.208Z,59.30
2023-03-03T16:50:38.511Z,59.40
2023-03-03T16:53:30.971Z,59.50
2023-03-03T16:56:23.661Z,59.40
2023-03-03T16:59:11.429Z,59.50
2023-03-03T17:02:15.126Z,59.50
2023-03-03T17:05:13.400Z,59.30
2023-03-03T17:08:08.148Z,59.50
2023-03-03T17:10:53.845Z,59.50
2023-03-03T17:13:47.009Z,59.50
2023-03-03T17:16:51.515Z,59.50
2023-03-03T17:19:22.662Z,59.70
2023-03-03T17:22:09.051Z,59.60
2023-03-03T17:24:51.516Z,59.70
2023-03-03T17:27:27.164Z,59.80
2023-03-03T17:30:00.499Z,59.80
2023-03-03T17:32:56.224Z,59.90
2023-03-03T17:35:33.206Z,60.00
2023-03-03T17:38:28.982Z,60.00
2023-03-03T17:41:28.704Z,60.10
2023-03-03T17:44:27.776Z,60.20
2023-03-03T17:47:10.185Z,60.30
2023-03-03T17:49:50.919Z,60.40
2023-03-03T17:52:44.798Z,60.40
2023-03-03T17:55:53.550Z,60.50
2023-03-03T17:59:04.278Z,60.50
2023-03-03T18:02:11.101Z,60.60
2023-03-03T18:05:03.952Z,60.60
2023-03-03T18:07:43.010Z,60.60
2023-03-03T18:10:28.626Z,60.50
2023-03-03T18:13:02.869Z,60.60
2023-03-03T18:15:29.767Z,60.60
2023-03-03T18:18:18.674Z,60.70
2023-03-03T18:20:59.916Z,60.70
2023-03-03T18:23:46.812Z,60.70
2023-03-03T18:26:34.466Z,60.70
2023-03-03T18:29:19.449Z,60.80
2023-03-03T18:31:58.432Z,60.90
2023-03-03T18:34:54.326Z,60.90
2023-03-03T18:37:30.382Z,61.00
2023-03-03T18:40:03.183Z,60.90
2023-03-03T18:42:41.067Z,60.90
2023-03-03T18:45:20.105Z,61.00
2023-03-03T18:48:11.207Z,61.10
2023-03-03T18:50:50.426Z,61.10
2023-03-03T18:53:29.180Z,61.20
2023-03-03T18:55:58.570Z,61.20
2023-03-03T18:58:57.279Z,61.20
2023-03-03T19:01:36.181Z,61.30
2023-03-03T19:04:16.389Z,61.30
2023-03-03T19:06:43.091Z,61.20
2023-03-03T19:09:38.024Z,61.20
2023-03-03T19:12:09.636Z,61.30
2023-03-03T19:14:40.123Z,61.20
2023-03-03T19:17:18.775Z,61.30
2023-03-03T19:20:15.494Z,61.30
2023-03-03T19:22:52.013Z,61.40
2023-03-03T19:25:21.999Z,61.40
2023-03-03T19:27:58.822Z,61.40
2023-03-03T19:30:46.825Z,62.40
2023-03-03T19:33:32.221Z,61.50
2023-03-03T19:36:01.717Z,61.50
2023-03-03T19:38:42.995Z,61.40
2023-03-03T19:41:45.864Z,61.60
2023-03-03T19:44:39.536Z,61.50
2023-03-03T19:47:43.046Z,61.60
2023-03-03T19:50:09.905Z,61.60
2023-03-03T19:53:01.384Z,61.70
2023-03-03T19:55:40.111Z,61.70
2023-03-03T19:58:45.642Z,61.80
2023-03-03T20:01:21.623Z,61.70
2023-03-03T20:04:06.293Z,61.70
2023-03-03T20:06:43.774Z,61.90
2023-03-03T20:09:37.213Z,61.90
2023-03-03T20:12:22.827Z,62.00
2023-03-03T20:14:59.030Z,61.90
2023-03-03T20:17:59.628Z,62.10
2023-03-03T20:20:50.924Z,62.10
2023-03-03T20:23:36.661Z,62.10
2023-03-03T20:26:22.201Z,62.10
2023-03-03T20:29:01.144Z,62.30
2023-03-03T20:31:49.137Z,62.30
2023-03-03T20:34:56.553Z,62.40
2023-03-03T20:37:38.796Z,62.40
2023-03-03T20:40:40.779Z,62.40
2023-03-03T20:43:45.224Z,62.50
2023-03-03T20:46:48.669Z,62.50
2023-03-03T20:49:40.097Z,62.60
2023-03-03T20:52:31.649Z,62.60
2023-03-03T20:55:18.990Z,62.60
2023-03-03T20:58:12.107Z,62.60
2023-03-03T21:00:57.714Z,62.60
2023-03-03T21:03:38.296Z,62.70
2023-03-03T21:06:19.099Z,62.70
2023-03-03T21:09:00.314Z,62.80
2023-03-03T21:11:43.357Z,62.90
2023-03-03T21:14:34.746Z,62.90
2023-03-03T21:17:24.257Z,62.90
2023-03-03T21:19:50.996Z,63.80
2023-03-03T21:22:17.766Z,63.10
2023-03-03T21:24:48.746Z,63.10
2023-03-03T21:27:31.042Z,63.10
2023-03-03T21:30:15.673Z,63.20
2023-03-03T21:32:50.792Z,64.00
2023-03-03T21:35:23.836Z,63.20
2023-03-03T21:37:55.117Z,63.20
2023-03-03T21:40:27.595Z,63.20
2023-03-03T21:42:59.669Z,63.30
2023-03-03T21:45:27.282Z,63.30
2023-03-03T21:47:55.180Z,63.40
2023-03-03T21:50:21.992Z,63.30
2023-03-03T21:52:51.441Z,63.40
2023-03-03T21:55:18.329Z,63.40
2023-03-03T21:57:45.060Z,63.50
2023-03-03T22:00:12.332Z,63.60
2023-03-03T22:02:39.168Z,63.60
2023-03-03T22:05:07.736Z,63.60
2023-03-03T22:07:34.742Z,63.70
2023-03-03T22:10:01.595Z,63.70
2023-03-03T22:12:28.390Z,63.70
2023-03-03T22:14:55.120Z,63.80
2023-03-03T22:17:25.454Z,63.80
2023-03-03T22:19:52.703Z,63.90
2023-03-03T22:22:19.485Z,63.90
2023-03-03T22:24:46.388Z,63.90
2023-03-03T22:27:13.200Z,63.90
2023-03-03T22:29:42.655Z,63.90
2023-03-03T22:32:09.525Z,64.00
2023-03-03T22:34:36.618Z,64.00
2023-03-03T22:37:05.652Z,64.00
2023-03-03T22:39:32.433Z,64.00
2023-03-03T22:41:59.281Z,64.10
2023-03-03T22:44:26.047Z,64.10
2023-03-03T22:46:52.893Z,64.10
2023-03-03T22:49:19.689Z,64.20
2023-03-03T22:51:46.456Z,64.20
2023-03-03T22:54:13.569Z,64.30
2023-03-03T22:56:40.330Z,64.30
2023-03-03T22:59:07.186Z,64.40
2023-03-03T23:01:34.042Z,64.40
2023-03-03T23:04:00.765Z,64.40
2023-03-03T23:06:27.542Z,64.40
2023-03-03T23:08:54.359Z,64.50
2023-03-03T23:11:21.773Z,64.60
2023-03-03T23:13:48.468Z,64.60
2023-03-03T23:16:15.255Z,64.60
2023-03-03T23:18:42.392Z,64.60
2023-03-03T23:21:09.073Z,64.70
2023-03-03T23:23:35.921Z,64.70
2023-03-03T23:26:02.873Z,64.80
2023-03-03T23:28:29.795Z,64.80
2023-03-03T23:30:56.565Z,64.80
2023-03-03T23:33:23.273Z,64.80
2023-03-03T23:35:50.120Z,64.80
2023-03-03T23:38:17.867Z,65.00
2023-03-03T23:40:46.936Z,65.00
2023-03-03T23:43:14.528Z,64.90
2023-03-03T23:45:43.732Z,65.00
2023-03-03T23:48:10.682Z,64.90
2023-03-03T23:50:38.120Z,64.90
2023-03-03T23:53:06.521Z,65.10
2023-03-03T23:55:33.461Z,65.00
2023-03-03T23:58:00.417Z,65.00
